Time;durP1;ratioP1;P1;durP2;ratioP2;P2;SDS_P1;SDS_P2;PMS_P1;PMS_P2;Temp;Humidity;BMP_temperature;BMP_pressure;BME280_temperature;BME280_humidity;BME280_pressure;Samples;Min_cycle;Max_cycle;Signal;HPM_P1;HPM_P2
2022/03/27 00:01:15;;;;;;;24.03;16.20;;;10.50;36.20;;;;;;5112550;28;20924;-44
2022/03/27 00:03:40;;;;;;;20.87;15.60;;;10.40;36.20;;;;;;5114118;28;20430;-45
2022/03/27 00:06:06;;;;;;;19.90;15.47;;;10.40;36.30;;;;;;5113641;28;20475;-44
2022/03/27 00:08:32;;;;;;;21.73;16.80;;;10.40;36.40;;;;;;5114770;28;20200;-44
2022/03/27 00:13:41;;;;;;;24.93;15.87;;;10.30;36.60;;;;;;5115641;28;20276;-44
2022/03/27 00:16:09;;;;;;;20.00;14.93;;;10.20;37.10;;;;;;5114637;28;20491;-44
2022/03/27 00:18:36;;;;;;;22.03;15.87;;;10.20;36.80;;;;;;5114713;28;20248;-45
2022/03/27 00:21:03;;;;;;;21.27;15.97;;;10.10;36.80;;;;;;5113482;28;20721;-44
2022/03/27 00:23:28;;;;;;;20.73;15.13;;;10.10;36.90;;;;;;5115000;28;20416;-46
2022/03/27 00:25:54;;;;;;;21.57;15.30;;;10.00;36.90;;;;;;5113101;28;20430;-45
2022/03/27 00:28:20;;;;;;;23.87;15.87;;;10.00;37.00;;;;;;5114132;28;20182;-45
2022/03/27 00:30:46;;;;;;;22.27;17.47;;;9.90;37.80;;;;;;5112370;28;20241;-45
2022/03/27 00:33:12;;;;;;;26.33;16.80;;;9.90;37.90;;;;;;5113926;28;20172;-45
2022/03/27 00:35:37;;;;;;;21.27;15.70;;;9.90;38.00;;;;;;5111402;28;20246;-45
2022/03/27 00:38:03;;;;;;;22.90;15.80;;;9.80;38.00;;;;;;5112960;28;20418;-45
2022/03/27 00:40:29;;;;;;;19.37;15.13;;;9.80;38.10;;;;;;5112775;28;20198;-45
2022/03/27 00:42:55;;;;;;;22.33;16.50;;;9.70;38.10;;;;;;5114505;28;20410;-46
2022/03/27 00:45:20;;;;;;;23.10;17.07;;;9.70;38.20;;;;;;5112074;28;20495;-45
2022/03/27 00:47:46;;;;;;;18.17;15.77;;;9.60;38.10;;;;;;5115578;28;20306;-45
2022/03/27 00:50:12;;;;;;;20.83;16.20;;;9.60;38.20;;;;;;5115606;28;20237;-45
2022/03/27 00:52:38;;;;;;;21.53;17.17;;;9.60;38.30;;;;;;5116870;28;20196;-44
2022/03/27 00:55:04;;;;;;;21.80;15.67;;;9.50;38.30;;;;;;5116763;28;20196;-45
2022/03/27 00:57:31;;;;;;;24.80;17.30;;;9.50;38.50;;;;;;5114655;28;20425;-45
2022/03/27 00:59:57;;;;;;;25.50;16.63;;;9.50;38.60;;;;;;5113700;28;20414;-45
2022/03/27 01:02:25;;;;;;;23.47;15.80;;;9.40;38.60;;;;;;5112958;28;20479;-45
2022/03/27 01:04:55;;;;;;;19.17;16.13;;;9.40;38.70;;;;;;5114868;28;20817;-45
2022/03/27 01:07:20;;;;;;;19.70;15.40;;;9.30;38.80;;;;;;5114118;28;20429;-45
2022/03/27 01:09:47;;;;;;;18.90;16.23;;;9.30;38.90;;;;;;5115076;28;20813;-45
2022/03/27 01:12:14;;;;;;;24.50;15.53;;;9.30;39.00;;;;;;5113031;28;20582;-46
2022/03/27 01:14:40;;;;;;;21.93;15.50;;;9.20;39.10;;;;;;5117627;28;20906;-45
2022/03/27 01:17:08;;;;;;;23.07;17.10;;;9.20;39.20;;;;;;5115255;28;20422;-45
2022/03/27 01:19:35;;;;;;;23.97;18.20;;;9.10;39.20;;;;;;5117895;28;20415;-45
2022/03/27 01:22:01;;;;;;;21.80;16.50;;;9.10;39.30;;;;;;5117377;28;20453;-45
2022/03/27 01:24:27;;;;;;;23.63;16.27;;;9.10;39.40;;;;;;5117958;28;20422;-45
2022/03/27 01:26:53;;;;;;;23.70;16.50;;;9.00;39.50;;;;;;5117853;28;20226;-45
2022/03/27 01:29:19;;;;;;;20.90;16.40;;;9.00;39.60;;;;;;5119147;28;20502;-45
2022/03/27 01:31:47;;;;;;;20.30;15.03;;;9.00;39.70;;;;;;5117070;28;20443;-46
2022/03/27 01:34:13;;;;;;;19.30;15.60;;;8.90;39.70;;;;;;5118054;28;20881;-45
2022/03/27 01:36:39;;;;;;;22.57;14.87;;;8.90;39.80;;;;;;5117952;28;20509;-45
2022/03/27 01:39:08;;;;;;;19.90;15.33;;;8.90;40.00;;;;;;5119407;27;20422;-45
2022/03/27 01:41:35;;;;;;;21.20;15.43;;;8.80;40.00;;;;;;5118223;28;20180;-45
2022/03/27 01:44:00;;;;;;;22.47;15.77;;;8.80;40.10;;;;;;5118691;28;20411;-44
2022/03/27 01:46:37;;;;;;;19.63;17.00;;;8.80;40.10;;;;;;5118954;27;20422;-45
2022/03/27 01:49:05;;;;;;;21.90;15.73;;;8.70;40.10;;;;;;5117629;28;20459;-45
2022/03/27 01:51:32;;;;;;;20.43;15.13;;;8.70;40.00;;;;;;5118928;28;20444;-45
2022/03/27 01:53:58;;;;;;;26.83;16.10;;;8.70;40.10;;;;;;5117439;28;20464;-45
2022/03/27 01:56:25;;;;;;;25.00;15.70;;;8.60;40.10;;;;;;5118519;28;20414;-45
2022/03/27 01:58:51;;;;;;;22.13;17.57;;;8.60;40.20;;;;;;5117116;28;20428;-45
2022/03/27 02:01:19;;;;;;;21.53;16.60;;;8.50;40.30;;;;;;5118487;28;20439;-45
2022/03/27 02:03:46;;;;;;;24.50;15.60;;;8.50;40.40;;;;;;5118003;28;20429;-45
2022/03/27 02:06:12;;;;;;;21.30;16.47;;;8.40;40.40;;;;;;5117995;28;20713;-45
2022/03/27 02:08:38;;;;;;;23.13;16.30;;;8.40;40.50;;;;;;5117400;28;20495;-45
2022/03/27 02:11:05;;;;;;;19.87;15.77;;;8.40;40.60;;;;;;5117149;28;20491;-45
2022/03/27 02:13:31;;;;;;;21.33;16.17;;;8.40;40.70;;;;;;5119214;28;20531;-45
2022/03/27 02:15:58;;;;;;;22.07;15.70;;;8.30;40.80;;;;;;5117872;28;20898;-45
2022/03/27 02:18:26;;;;;;;21.13;15.70;;;8.30;40.90;;;;;;5118592;28;20413;-45
2022/03/27 02:20:52;;;;;;;22.00;17.07;;;8.20;41.00;;;;;;5116555;28;20472;-45
2022/03/27 02:23:17;;;;;;;21.40;15.40;;;8.20;41.10;;;;;;5117913;28;20403;-45
2022/03/27 02:25:43;;;;;;;23.47;16.10;;;8.20;41.20;;;;;;5115104;27;20519;-45
2022/03/27 02:28:09;;;;;;;23.57;15.97;;;8.20;41.30;;;;;;5118773;28;20177;-45
2022/03/27 02:30:35;;;;;;;27.50;17.20;;;8.20;41.40;;;;;;5115667;28;20203;-45
2022/03/27 02:33:02;;;;;;;20.27;15.80;;;8.20;41.50;;;;;;5117618;28;20482;-45
2022/03/27 02:35:27;;;;;;;24.10;16.70;;;8.10;41.40;;;;;;5115871;28;20588;-45
2022/03/27 02:37:53;;;;;;;19.67;15.23;;;8.10;41.50;;;;;;5116118;28;20506;-45
2022/03/27 02:40:19;;;;;;;20.33;15.20;;;8.00;41.50;;;;;;5116723;28;20177;-45
2022/03/27 02:42:45;;;;;;;18.43;15.20;;;8.00;41.50;;;;;;5116598;28;20430;-45
2022/03/27 02:45:10;;;;;;;22.23;15.50;;;8.00;41.60;;;;;;5116671;28;20297;-45
2022/03/27 02:47:36;;;;;;;22.80;18.27;;;8.00;41.70;;;;;;5117104;28;20414;-45
2022/03/27 02:50:04;;;;;;;21.97;16.60;;;8.00;41.70;;;;;;5116521;28;20468;-45
2022/03/27 02:52:30;;;;;;;21.27;15.90;;;7.90;41.70;;;;;;5116921;28;20410;-45
2022/03/27 02:54:56;;;;;;;17.57;14.70;;;7.90;41.80;;;;;;5116531;28;20747;-45
2022/03/27 02:57:22;;;;;;;21.20;15.43;;;7.80;41.70;;;;;;5116936;28;20462;-45
2022/03/27 02:59:48;;;;;;;21.93;15.47;;;7.80;41.70;;;;;;5116646;28;20446;-45
2022/03/27 03:02:13;;;;;;;21.90;15.17;;;7.70;41.70;;;;;;5118145;28;20250;-45
2022/03/27 03:04:39;;;;;;;22.20;15.57;;;7.70;41.80;;;;;;5115365;28;20444;-45
2022/03/27 03:07:06;;;;;;;22.73;15.73;;;7.70;41.90;;;;;;5115946;28;20527;-45
2022/03/27 03:09:31;;;;;;;22.70;16.13;;;7.60;41.90;;;;;;5115013;28;20213;-45
2022/03/27 03:11:57;;;;;;;22.47;16.40;;;7.60;42.00;;;;;;5116397;28;20451;-44
2022/03/27 03:14:23;;;;;;;24.70;17.10;;;7.60;42.10;;;;;;5115184;28;20216;-45
2022/03/27 03:16:49;;;;;;;26.63;17.27;;;7.60;42.10;;;;;;5116855;28;20188;-45
2022/03/27 03:19:15;;;;;;;21.80;15.57;;;7.50;42.10;;;;;;5114854;28;20169;-45
2022/03/27 03:21:41;;;;;;;20.23;16.07;;;7.50;42.30;;;;;;5117633;28;20421;-45
2022/03/27 03:24:07;;;;;;;25.07;17.30;;;7.50;42.40;;;;;;5117368;28;20456;-45
2022/03/27 03:26:33;;;;;;;27.50;17.23;;;7.50;42.50;;;;;;5114940;28;20218;-45
2022/03/27 03:28:59;;;;;;;18.53;14.40;;;7.50;42.60;;;;;;5117569;28;20422;-44
2022/03/27 03:31:25;;;;;;;22.40;15.40;;;7.40;42.70;;;;;;5116365;28;20441;-44
2022/03/27 03:33:51;;;;;;;27.20;17.60;;;7.40;42.70;;;;;;5117788;28;20418;-45
2022/03/27 03:36:16;;;;;;;18.27;15.03;;;7.40;42.80;;;;;;5115020;28;20251;-45
2022/03/27 03:38:42;;;;;;;21.90;15.43;;;7.40;42.90;;;;;;5117959;28;20169;-45
2022/03/27 03:41:08;;;;;;;25.07;17.20;;;7.40;43.00;;;;;;5115455;28;20626;-45
2022/03/27 03:43:36;;;;;;;17.60;14.70;;;7.30;43.00;;;;;;5113881;28;20865;-45
2022/03/27 03:46:03;;;;;;;22.37;15.67;;;7.30;43.10;;;;;;5115377;28;20816;-45
2022/03/27 03:48:28;;;;;;;21.37;14.50;;;7.30;43.20;;;;;;5113894;28;20735;-44
2022/03/27 03:50:54;;;;;;;21.77;14.00;;;7.20;43.20;;;;;;5115684;28;20410;-45
2022/03/27 03:53:21;;;;;;;20.63;15.10;;;7.20;43.20;;;;;;5113998;28;20469;-45
2022/03/27 03:55:46;;;;;;;23.73;15.07;;;7.20;43.30;;;;;;5115280;28;20564;-45
2022/03/27 03:58:12;;;;;;;23.07;15.20;;;7.10;43.40;;;;;;5114794;28;20787;-45
2022/03/27 04:00:37;;;;;;;20.10;15.67;;;7.10;43.50;;;;;;5117286;28;20176;-45
2022/03/27 04:03:03;;;;;;;24.17;16.90;;;7.10;43.60;;;;;;5115210;28;20191;-46
2022/03/27 04:05:29;;;;;;;20.50;15.50;;;7.10;43.70;;;;;;5116588;28;20191;-47
2022/03/27 04:07:55;;;;;;;25.33;15.00;;;7.10;43.70;;;;;;5117362;28;20499;-47
2022/03/27 04:10:21;;;;;;;20.03;14.90;;;7.10;43.80;;;;;;5115701;28;20273;-46
2022/03/27 04:12:46;;;;;;;24.70;17.07;;;7.10;43.70;;;;;;5115713;28;20267;-47
2022/03/27 04:15:12;;;;;;;21.67;14.80;;;7.10;43.70;;;;;;5112859;28;20745;-46
2022/03/27 04:17:44;;;;;;;21.93;16.17;;;7.00;43.70;;;;;;5115238;28;20169;-46
2022/03/27 04:20:13;;;;;;;30.23;16.87;;;7.10;43.70;;;;;;5114729;28;20187;-47
2022/03/27 04:22:40;;;;;;;21.47;14.73;;;7.00;43.60;;;;;;5115356;28;20430;-46
2022/03/27 04:25:07;;;;;;;26.40;17.57;;;7.10;43.70;;;;;;5114248;28;20437;-47
2022/03/27 04:27:32;;;;;;;26.03;16.97;;;7.00;43.70;;;;;;5116478;28;20952;-47
2022/03/27 04:29:58;;;;;;;24.10;14.10;;;7.00;43.70;;;;;;5116791;28;20406;-46
2022/03/27 04:32:24;;;;;;;19.67;14.87;;;7.00;43.70;;;;;;5114937;28;20185;-47
2022/03/27 04:34:50;;;;;;;19.10;15.50;;;6.90;43.60;;;;;;5115954;28;20212;-46
2022/03/27 04:37:16;;;;;;;18.87;14.13;;;6.90;43.70;;;;;;5113946;28;20237;-47
2022/03/27 04:39:42;;;;;;;21.37;14.77;;;6.90;43.60;;;;;;5116082;28;20413;-46
2022/03/27 04:42:09;;;;;;;22.87;15.63;;;6.80;43.60;;;;;;5115720;28;20513;-47
2022/03/27 04:44:35;;;;;;;22.80;15.30;;;6.80;43.60;;;;;;5114870;28;20188;-47
2022/03/27 04:47:00;;;;;;;19.77;15.97;;;6.80;43.70;;;;;;5115347;28;20852;-46
2022/03/27 04:49:26;;;;;;;19.40;14.80;;;6.80;43.80;;;;;;5118592;28;20486;-46
2022/03/27 04:51:51;;;;;;;20.03;14.83;;;6.80;43.90;;;;;;5119096;28;20175;-46
2022/03/27 04:54:17;;;;;;;20.33;14.53;;;6.80;44.00;;;;;;5118195;28;20221;-46
2022/03/27 04:56:44;;;;;;;24.87;15.80;;;6.70;44.00;;;;;;5117853;28;20279;-46
2022/03/27 04:59:10;;;;;;;24.27;15.57;;;6.70;44.20;;;;;;5115448;28;20175;-46
2022/03/27 05:01:35;;;;;;;24.47;14.63;;;6.70;44.30;;;;;;5118072;28;20803;-47
2022/03/27 05:04:01;;;;;;;24.73;16.53;;;6.60;44.40;;;;;;5115125;28;20188;-46
2022/03/27 05:06:29;;;;;;;19.80;15.50;;;6.60;44.50;;;;;;5116816;28;20203;-46
2022/03/27 05:08:58;;;;;;;23.90;16.20;;;6.60;44.60;;;;;;5116269;28;20222;-46
2022/03/27 05:11:28;;;;;;;21.57;16.77;;;6.60;44.70;;;;;;5118096;28;20414;-46
2022/03/27 05:13:54;;;;;;;22.80;15.47;;;6.60;44.80;;;;;;5117170;28;20467;-46
2022/03/27 05:16:20;;;;;;;21.97;16.10;;;6.50;44.90;;;;;;5119801;28;20422;-47
2022/03/27 05:18:46;;;;;;;21.50;16.00;;;6.50;45.00;;;;;;5118441;28;20430;-46
2022/03/27 05:21:11;;;;;;;22.23;15.50;;;6.50;45.10;;;;;;5118965;28;20460;-46
2022/03/27 05:23:37;;;;;;;20.17;15.40;;;6.50;45.20;;;;;;5117861;28;20184;-46
2022/03/27 05:26:03;;;;;;;25.40;15.33;;;6.50;45.20;;;;;;5119262;28;20172;-46
2022/03/27 05:28:30;;;;;;;20.97;14.40;;;6.50;45.30;;;;;;5118531;28;20176;-50
2022/03/27 05:30:56;;;;;;;21.90;16.70;;;6.50;45.40;;;;;;5119642;28;20584;-47
2022/03/27 05:33:22;;;;;;;20.87;15.13;;;6.50;45.40;;;;;;5118243;28;20430;-46
2022/03/27 05:35:48;;;;;;;22.57;15.70;;;6.50;45.50;;;;;;5119442;28;20510;-46
2022/03/27 05:38:14;;;;;;;22.17;15.07;;;6.60;45.30;;;;;;5118475;28;20462;-46
2022/03/27 05:40:40;;;;;;;21.37;15.97;;;6.50;45.10;;;;;;5118222;28;20464;-46
2022/03/27 05:43:07;;;;;;;29.30;15.80;;;6.60;45.20;;;;;;5118201;28;20176;-46
2022/03/27 05:45:35;;;;;;;23.60;15.97;;;6.60;45.20;;;;;;5118810;28;20416;-46
2022/03/27 05:48:00;;;;;;;22.87;15.70;;;6.60;45.30;;;;;;5115993;28;20548;-46
2022/03/27 05:50:26;;;;;;;25.37;16.30;;;6.60;45.50;;;;;;5119229;28;20508;-46
2022/03/27 05:52:52;;;;;;;24.90;18.10;;;6.60;45.50;;;;;;5117390;28;20707;-46
2022/03/27 05:55:19;;;;;;;24.23;17.07;;;6.70;45.70;;;;;;5117761;28;20208;-47
2022/03/27 05:57:45;;;;;;;24.73;18.47;;;6.70;45.70;;;;;;5116754;28;20727;-47
2022/03/27 06:00:12;;;;;;;23.30;15.57;;;6.90;45.90;;;;;;5116118;28;20483;-47
2022/03/27 06:02:39;;;;;;;26.27;16.70;;;7.00;45.90;;;;;;5116588;27;20438;-46
2022/03/27 06:05:05;;;;;;;25.63;17.10;;;7.10;45.70;;;;;;5116219;28;20714;-46
2022/03/27 06:07:31;;;;;;;23.80;16.43;;;7.30;45.70;;;;;;5116973;28;20437;-47
2022/03/27 06:09:56;;;;;;;24.37;16.03;;;7.40;45.60;;;;;;5118070;28;20559;-46
2022/03/27 06:12:22;;;;;;;22.47;16.33;;;7.60;45.30;;;;;;5116535;28;20237;-46
2022/03/27 06:14:49;;;;;;;21.53;16.03;;;7.70;45.00;;;;;;5117979;28;20207;-46
2022/03/27 06:17:16;;;;;;;26.43;16.67;;;7.90;44.90;;;;;;5117114;28;20194;-47
2022/03/27 06:19:41;;;;;;;23.10;16.27;;;8.10;44.60;;;;;;5117821;28;20402;-46
2022/03/27 06:22:07;;;;;;;19.83;13.90;;;8.30;44.30;;;;;;5118253;28;20515;-46
2022/03/27 06:24:33;;;;;;;19.03;14.97;;;8.40;43.70;;;;;;5117361;28;20434;-47
2022/03/27 06:26:58;;;;;;;21.03;15.10;;;8.60;43.40;;;;;;5117779;28;20174;-46
2022/03/27 06:29:24;;;;;;;19.80;14.50;;;8.70;43.10;;;;;;5116169;28;20513;-46
2022/03/27 06:31:50;;;;;;;19.73;14.53;;;8.90;43.00;;;;;;5118694;28;20172;-46
2022/03/27 06:34:16;;;;;;;21.20;14.90;;;9.10;42.70;;;;;;5116378;28;20484;-46
2022/03/27 06:36:42;;;;;;;20.53;15.20;;;9.30;42.50;;;;;;5117597;28;20938;-46
2022/03/27 06:39:08;;;;;;;24.67;15.57;;;9.40;42.20;;;;;;5118668;27;20413;-46
2022/03/27 06:41:34;;;;;;;21.13;15.10;;;9.60;41.90;;;;;;5117006;28;20182;-46
2022/03/27 06:43:59;;;;;;;19.00;15.03;;;9.90;41.70;;;;;;5118596;28;20509;-46
2022/03/27 06:46:25;;;;;;;20.17;15.80;;;10.10;40.70;;;;;;5115900;28;20532;-46
2022/03/27 06:48:51;;;;;;;19.40;15.53;;;10.30;40.40;;;;;;5118421;28;20183;-46
2022/03/27 06:51:19;;;;;;;16.87;14.40;;;10.50;40.10;;;;;;5117628;28;20199;-46
2022/03/27 06:53:45;;;;;;;21.13;14.63;;;10.80;39.90;;;;;;5118033;28;20198;-46
2022/03/27 06:56:11;;;;;;;17.50;13.63;;;11.00;39.50;;;;;;5116120;28;20434;-46
2022/03/27 06:58:36;;;;;;;19.63;17.50;;;11.30;39.20;;;;;;5117537;28;20413;-47
2022/03/27 07:03:46;;;;;;;20.43;16.10;;;11.70;39.20;;;;;;5116995;28;20686;-47
2022/03/27 07:06:14;;;;;;;17.50;15.30;;;12.00;38.50;;;;;;5116621;28;21079;-48
2022/03/27 07:08:40;;;;;;;21.80;15.73;;;12.30;38.20;;;;;;5116685;28;20176;-48
2022/03/27 07:11:06;;;;;;;26.87;17.50;;;12.50;37.80;;;;;;5116846;28;20594;-47
2022/03/27 07:13:33;;;;;;;18.07;15.40;;;12.70;37.40;;;;;;5118007;28;20421;-47
2022/03/27 07:15:59;;;;;;;23.83;16.37;;;13.00;37.10;;;;;;5114862;28;20485;-47
2022/03/27 07:18:24;;;;;;;20.73;14.90;;;13.20;37.00;;;;;;5116322;28;20418;-48
2022/03/27 07:20:51;;;;;;;18.00;15.77;;;13.40;36.80;;;;;;5113429;28;20277;-47
2022/03/27 07:23:21;;;;;;;20.10;15.00;;;13.60;36.50;;;;;;5117275;28;20741;-47
2022/03/27 07:25:48;;;;;;;19.07;15.40;;;13.90;36.30;;;;;;5115727;28;20516;-47
2022/03/27 07:28:15;;;;;;;16.83;14.53;;;14.10;36.00;;;;;;5117039;28;20419;-48
2022/03/27 07:30:43;;;;;;;18.80;14.43;;;14.30;35.80;;;;;;5115565;28;20427;-48
2022/03/27 07:33:10;;;;;;;18.13;13.90;;;14.50;36.10;;;;;;5115775;28;20475;-48
2022/03/27 07:35:36;;;;;;;19.90;14.33;;;14.80;35.40;;;;;;5116650;28;20497;-47
2022/03/27 07:38:03;;;;;;;18.93;15.30;;;15.00;35.20;;;;;;5116401;28;20508;-48
2022/03/27 07:40:29;;;;;;;15.87;14.20;;;15.20;35.10;;;;;;5115173;28;20180;-48
2022/03/27 07:42:55;;;;;;;20.50;14.47;;;15.50;35.00;;;;;;5114994;28;20443;-48
2022/03/27 07:45:26;;;;;;;20.07;15.43;;;15.70;34.70;;;;;;5102818;28;20454;-48
2022/03/27 07:47:53;;;;;;;23.03;15.33;;;15.90;34.50;;;;;;5093087;28;20437;-49
2022/03/27 07:50:20;;;;;;;17.30;13.80;;;16.20;34.40;;;;;;5097215;28;20411;-48
2022/03/27 07:52:46;;;;;;;19.43;14.50;;;16.40;34.10;;;;;;5114318;28;20422;-47
2022/03/27 07:55:15;;;;;;;16.03;14.33;;;16.70;33.90;;;;;;5115780;28;20524;-47
2022/03/27 07:57:42;;;;;;;20.90;15.87;;;17.00;33.70;;;;;;5114863;28;20246;-47
2022/03/27 08:00:10;;;;;;;23.83;15.07;;;17.30;33.40;;;;;;5115016;28;21015;-46
2022/03/27 08:02:41;;;;;;;15.60;14.00;;;17.50;33.20;;;;;;5114040;28;20530;-46
2022/03/27 08:05:08;;;;;;;18.63;14.13;;;17.80;33.00;;;;;;5115922;28;20959;-47
2022/03/27 08:07:33;;;;;;;15.93;14.17;;;18.10;32.70;;;;;;5114657;28;20435;-47
2022/03/27 08:10:00;;;;;;;15.63;12.80;;;18.40;32.60;;;;;;5114586;28;20444;-47
2022/03/27 08:12:26;;;;;;;17.43;14.80;;;18.70;32.30;;;;;;5114349;28;20427;-47
2022/03/27 08:14:52;;;;;;;17.53;14.10;;;19.00;32.10;;;;;;5113854;28;20775;-47
2022/03/27 08:17:18;;;;;;;16.27;13.80;;;19.30;31.90;;;;;;5112710;28;20431;-47
2022/03/27 08:19:45;;;;;;;10.50;8.47;;;19.60;31.80;;;;;;5114204;28;20183;-42
2022/03/27 08:22:11;;;;;;;11.30;4.83;;;19.90;34.00;;;;;;5114452;28;20597;-40
2022/03/27 08:24:37;;;;;;;7.60;5.87;;;20.40;36.40;;;;;;5120013;28;20823;-42
2022/03/27 08:27:04;;;;;;;6.53;5.83;;;20.80;37.40;;;;;;5116607;28;21032;-44
2022/03/27 08:29:31;;;;;;;11.90;9.33;;;21.30;37.40;;;;;;5116582;28;20414;-44
2022/03/27 08:32:01;;;;;;;13.73;9.23;;;21.80;37.70;;;;;;5113336;28;20765;-42
2022/03/27 08:34:29;;;;;;;17.43;12.00;;;22.10;37.20;;;;;;5116189;28;20463;-41
2022/03/27 08:36:59;;;;;;;15.67;11.90;;;22.50;35.10;;;;;;5115353;28;20579;-43
2022/03/27 08:39:25;;;;;;;13.53;11.70;;;22.80;34.20;;;;;;5112936;28;20872;-44
2022/03/27 08:41:54;;;;;;;14.07;11.53;;;23.10;33.90;;;;;;5114817;28;20505;-43
2022/03/27 08:44:20;;;;;;;11.53;9.53;;;23.40;33.30;;;;;;5114548;28;20484;-42
2022/03/27 08:46:48;;;;;;;14.30;10.57;;;23.70;33.30;;;;;;5115183;28;20435;-42
2022/03/27 08:49:25;;;;;;;10.33;9.20;;;24.10;32.80;;;;;;5113823;28;20421;-43
2022/03/27 08:52:21;;;;;;;12.60;9.53;;;24.50;32.10;;;;;;5115642;28;20409;-44
2022/03/27 08:55:09;;;;;;;11.43;10.17;;;24.80;32.80;;;;;;5106503;28;20530;-41
2022/03/27 08:57:37;;;;;;;13.73;9.27;;;24.90;32.60;;;;;;5102861;28;20628;-43
2022/03/27 09:00:05;;;;;;;13.03;9.70;;;25.20;32.90;;;;;;5106514;28;20472;-45
2022/03/27 09:02:30;;;;;;;12.20;10.43;;;25.40;32.50;;;;;;5104084;28;20432;-44
2022/03/27 09:04:57;;;;;;;11.60;9.77;;;25.60;31.00;;;;;;5115059;28;20482;-42
2022/03/27 09:07:24;;;;;;;15.27;10.13;;;25.70;31.10;;;;;;5117093;28;20175;-42
2022/03/27 09:09:50;;;;;;;13.93;11.33;;;25.90;30.60;;;;;;5116899;28;20448;-42
2022/03/27 09:12:18;;;;;;;13.73;11.17;;;26.20;30.20;;;;;;5117696;28;20426;-44
2022/03/27 09:14:44;;;;;;;13.07;9.50;;;26.30;29.90;;;;;;5116736;27;20488;-42
2022/03/27 09:17:10;;;;;;;14.27;11.53;;;26.50;29.90;;;;;;5120100;28;20414;-45
2022/03/27 09:19:39;;;;;;;15.70;9.27;;;26.70;29.00;;;;;;5101869;28;20189;-45
2022/03/27 09:22:13;;;;;;;15.10;11.63;;;27.10;29.50;;;;;;5099227;28;20233;-43
2022/03/27 09:24:39;;;;;;;14.90;11.43;;;27.30;28.50;;;;;;5102957;28;20488;-44
2022/03/27 09:27:05;;;;;;;13.40;10.53;;;27.60;28.10;;;;;;5095027;28;20449;-40
2022/03/27 09:29:55;;;;;;;12.37;9.30;;;27.70;28.00;;;;;;5094411;28;20446;-41
2022/03/27 09:32:32;;;;;;;10.80;9.70;;;28.00;28.40;;;;;;5114534;28;20460;-42
2022/03/27 09:34:59;;;;;;;10.80;9.50;;;28.40;28.00;;;;;;5113797;28;20544;-44
2022/03/27 09:37:33;;;;;;;12.77;10.13;;;28.60;28.00;;;;;;5115501;28;20858;-44
2022/03/27 09:39:59;;;;;;;11.30;9.47;;;28.90;27.30;;;;;;5114503;28;20429;-45
2022/03/27 09:42:26;;;;;;;12.67;9.60;;;29.10;27.50;;;;;;5113754;28;20457;-44
2022/03/27 09:45:11;;;;;;;13.97;10.93;;;29.20;27.10;;;;;;5112531;28;20799;-45
2022/03/27 09:47:37;;;;;;;13.70;12.23;;;29.50;27.10;;;;;;5113474;28;20451;-45
2022/03/27 09:50:03;;;;;;;12.47;11.27;;;29.70;26.40;;;;;;5114916;28;20545;-46
2022/03/27 09:52:29;;;;;;;12.77;10.43;;;29.80;26.30;;;;;;5117218;28;20842;-42
2022/03/27 09:54:58;;;;;;;19.47;12.60;;;29.90;26.00;;;;;;5112006;28;20474;-46
2022/03/27 09:57:24;;;;;;;11.03;9.97;;;30.20;26.00;;;;;;5116209;28;20168;-44
2022/03/27 09:59:52;;;;;;;11.40;10.20;;;30.30;26.00;;;;;;5114713;28;20765;-43
2022/03/27 10:02:20;;;;;;;11.50;9.97;;;30.60;26.10;;;;;;5113502;28;20185;-43
2022/03/27 10:05:16;;;;;;;11.97;10.60;;;30.80;26.10;;;;;;5116499;28;20389;-42
2022/03/27 10:07:50;;;;;;;13.40;10.87;;;31.00;27.10;;;;;;5106895;28;20438;-41
2022/03/27 10:10:18;;;;;;;15.00;10.47;;;31.40;26.70;;;;;;5112948;28;20729;-41
2022/03/27 10:12:46;;;;;;;13.20;10.30;;;31.60;26.10;;;;;;5113781;28;20428;-41
2022/03/27 10:15:20;;;;;;;15.93;9.60;;;31.70;26.00;;;;;;5109829;28;20449;-43
2022/03/27 10:17:48;;;;;;;14.63;11.10;;;32.00;27.30;;;;;;5093231;28;20426;-43
2022/03/27 10:20:16;;;;;;;15.30;12.70;;;32.10;26.20;;;;;;5092562;28;20405;-44
2022/03/27 10:22:45;;;;;;;12.70;11.23;;;32.20;24.40;;;;;;5095464;28;20405;-44
2022/03/27 10:25:13;;;;;;;12.57;11.37;;;32.10;24.50;;;;;;5098558;28;20521;-42
2022/03/27 10:27:40;;;;;;;11.40;9.30;;;32.00;24.70;;;;;;5095358;28;20486;-42
2022/03/27 10:30:08;;;;;;;14.57;13.07;;;32.20;25.80;;;;;;5094887;28;20393;-42
2022/03/27 10:32:35;;;;;;;13.93;11.27;;;32.40;24.20;;;;;;5090937;28;20448;-41
2022/03/27 10:35:02;;;;;;;10.87;9.87;;;32.60;24.90;;;;;;5092776;28;20779;-46
2022/03/27 10:37:36;;;;;;;13.23;9.93;;;32.70;25.10;;;;;;5091478;28;20404;-40
2022/03/27 10:40:07;;;;;;;11.87;10.27;;;32.90;25.60;;;;;;5090989;28;20457;-39
2022/03/27 10:42:54;;;;;;;10.37;9.40;;;33.40;25.10;;;;;;5092354;28;20436;-43
2022/03/27 10:45:21;;;;;;;10.30;8.93;;;33.70;25.70;;;;;;5090995;28;20496;-39
2022/03/27 10:48:10;;;;;;;8.50;7.70;;;34.10;25.40;;;;;;5091464;28;20415;-39
2022/03/27 10:50:53;;;;;;;13.50;11.30;;;34.30;25.40;;;;;;5091179;28;20784;-44
2022/03/27 10:53:22;;;;;;;11.23;10.07;;;34.40;24.10;;;;;;5094061;28;20495;-43
2022/03/27 10:55:50;;;;;;;11.00;10.00;;;34.50;23.40;;;;;;5094259;28;20470;-47
2022/03/27 10:58:33;;;;;;;11.20;10.10;;;34.50;23.60;;;;;;5090408;28;20426;-43
2022/03/27 11:01:07;;;;;;;10.77;9.70;;;34.60;23.60;;;;;;5092628;28;20637;-46
2022/03/27 11:04:08;;;;;;;12.90;11.70;;;34.60;23.90;;;;;;5092804;28;20412;-42
2022/03/27 11:06:38;;;;;;;12.67;11.50;;;34.70;23.00;;;;;;5062136;28;20426;-39
2022/03/27 11:09:07;;;;;;;13.40;12.10;;;34.80;22.00;;;;;;5094914;28;20419;-41
2022/03/27 11:11:35;;;;;;;12.63;11.43;;;34.80;22.40;;;;;;5094308;28;20437;-39
2022/03/27 11:14:04;;;;;;;11.90;10.70;;;34.90;22.90;;;;;;5093937;28;20840;-44
2022/03/27 11:16:30;;;;;;;12.60;11.30;;;35.00;23.00;;;;;;5091227;28;20434;-43
2022/03/27 11:18:56;;;;;;;14.50;13.00;;;35.10;22.60;;;;;;5092982;28;20529;-41
2022/03/27 11:21:28;;;;;;;10.97;9.90;;;35.10;22.50;;;;;;5092218;28;20480;-41
2022/03/27 11:23:55;;;;;;;12.30;11.00;;;35.10;23.00;;;;;;5095339;28;20685;-40
2022/03/27 11:26:21;;;;;;;11.43;10.27;;;35.30;23.20;;;;;;5102648;28;20479;-41
2022/03/27 11:28:50;;;;;;;12.87;9.90;;;35.40;23.10;;;;;;5109955;28;20521;-42
2022/03/27 11:31:18;;;;;;;14.70;13.20;;;35.60;23.00;;;;;;5113368;28;20448;-40
2022/03/27 11:33:46;;;;;;;12.30;11.20;;;35.70;20.80;;;;;;5114911;28;20490;-40
2022/03/27 11:36:18;;;;;;;11.50;10.43;;;35.60;20.90;;;;;;5097097;28;20480;-41
2022/03/27 11:39:02;;;;;;;13.17;11.90;;;35.60;21.50;;;;;;5114794;28;20523;-41
2022/03/27 11:41:46;;;;;;;13.00;11.17;;;35.70;21.70;;;;;;5116865;28;20381;-42
2022/03/27 11:44:18;;;;;;;11.60;10.40;;;35.80;22.40;;;;;;5115307;28;20493;-39
2022/03/27 11:46:45;;;;;;;12.40;8.50;;;35.90;22.60;;;;;;5108141;28;20429;-39
2022/03/27 11:49:14;;;;;;;11.90;10.70;;;36.10;22.80;;;;;;5093301;28;20516;-41
2022/03/27 11:51:41;;;;;;;12.27;10.40;;;36.40;22.30;;;;;;5092851;28;20493;-40
2022/03/27 11:54:18;;;;;;;10.43;9.43;;;36.60;22.20;;;;;;5089183;28;20441;-39
2022/03/27 11:56:54;;;;;;;12.00;10.77;;;36.60;22.30;;;;;;5097741;28;20642;-39
2022/03/27 11:59:20;;;;;;;12.23;11.07;;;36.70;21.80;;;;;;5112278;28;20445;-41
2022/03/27 12:01:51;;;;;;;11.10;10.10;;;36.90;22.10;;;;;;5112829;28;20394;-40
2022/03/27 12:04:18;;;;;;;11.73;10.47;;;37.00;22.30;;;;;;5112547;28;20196;-43
2022/03/27 12:06:46;;;;;;;10.57;9.57;;;37.10;21.90;;;;;;5111668;28;20416;-43
2022/03/27 12:09:30;;;;;;;9.80;8.73;;;37.20;21.90;;;;;;5110223;28;20440;-43
2022/03/27 12:12:08;;;;;;;11.10;10.07;;;37.30;22.40;;;;;;5112342;28;20748;-42
2022/03/27 12:14:51;;;;;;;10.10;9.13;;;37.40;21.70;;;;;;5110432;28;21001;-46
2022/03/27 12:17:19;;;;;;;11.63;10.53;;;37.50;22.30;;;;;;5112065;28;20412;-45
2022/03/27 12:20:06;;;;;;;9.90;8.90;;;37.70;21.40;;;;;;5102654;28;20439;-43
2022/03/27 12:22:46;;;;;;;12.40;11.17;;;37.70;21.90;;;;;;5090341;28;20637;-42
2022/03/27 12:25:22;;;;;;;9.33;8.43;;;37.80;21.20;;;;;;5092746;28;20407;-44
2022/03/27 12:30:50;;;;;;;10.00;9.10;;;38.10;21.40;;;;;;5093162;28;20448;-41
2022/03/27 12:33:24;;;;;;;10.43;9.40;;;38.20;21.30;;;;;;5090236;28;20521;-43
2022/03/27 12:36:04;;;;;;;11.03;9.97;;;38.20;21.20;;;;;;5093150;28;20495;-46
2022/03/27 12:38:31;;;;;;;10.60;9.50;;;38.40;19.90;;;;;;5092328;28;20485;-40
2022/03/27 12:40:57;;;;;;;10.77;9.87;;;38.40;19.90;;;;;;5093590;28;20653;-39
2022/03/27 12:43:22;;;;;;;11.97;10.93;;;38.40;20.10;;;;;;5091650;28;20472;-39
2022/03/27 12:45:48;;;;;;;12.80;11.50;;;38.40;19.30;;;;;;5093723;28;20181;-40